Time;durP1;ratioP1;P1;durP2;ratioP2;P2;SDS_P1;SDS_P2;PMS_P1;PMS_P2;Temp;Humidity;BMP_temperature;BMP_pressure;BME280_temperature;BME280_humidity;BME280_pressure;Samples;Min_cycle;Max_cycle;Signal;HPM_P1;HPM_P2
2022/12/21 00:01:57;;;;;;;32.28;20.40;;;;;;;2.33;100.00;96721.28;4966489;28;20145;-70
2022/12/21 00:04:23;;;;;;;35.08;22.20;;;;;;;2.28;100.00;96719.50;4959329;28;20137;-70
2022/12/21 00:06:48;;;;;;;36.65;22.15;;;;;;;2.05;100.00;96710.69;4965030;28;20060;-70
2022/12/21 00:09:14;;;;;;;58.33;24.10;;;;;;;2.05;100.00;96715.28;4960972;28;20051;-70
2022/12/21 00:11:40;;;;;;;47.97;22.70;;;;;;;2.11;100.00;96724.84;4946097;28;20134;-70
2022/12/21 00:14:08;;;;;;;39.35;21.50;;;;;;;2.19;100.00;96718.69;4961527;28;20102;-70
2022/12/21 00:16:37;;;;;;;41.80;19.85;;;;;;;2.15;100.00;96716.94;4964421;28;20043;-69
2022/12/21 00:19:03;;;;;;;35.00;20.23;;;;;;;2.14;100.00;96716.13;4962464;28;20133;-69
2022/12/21 00:21:31;;;;;;;34.72;19.75;;;;;;;2.03;100.00;96707.47;4962786;28;20035;-69
2022/12/21 00:23:58;;;;;;;34.45;19.58;;;;;;;2.03;100.00;96718.28;4966606;28;20113;-69
2022/12/21 00:26:25;;;;;;;30.38;18.08;;;;;;;1.98;100.00;96715.75;4961141;28;20042;-68
2022/12/21 00:28:53;;;;;;;30.83;17.58;;;;;;;2.02;100.00;96719.41;4984472;28;20043;-69
2022/12/21 00:31:23;;;;;;;29.95;17.27;;;;;;;2.07;100.00;96711.19;4960388;28;20039;-70
2022/12/21 00:33:49;;;;;;;29.67;17.27;;;;;;;2.12;100.00;96707.53;4973130;28;20073;-70
2022/12/21 00:36:17;;;;;;;33.13;20.60;;;;;;;2.22;100.00;96699.16;4979769;28;20047;-70
2022/12/21 00:38:43;;;;;;;30.45;20.02;;;;;;;2.31;100.00;96698.41;4984016;28;20041;-69
2022/12/21 00:41:11;;;;;;;30.30;19.27;;;;;;;2.23;100.00;96689.94;4978682;28;20038;-72
2022/12/21 00:43:39;;;;;;;32.53;19.73;;;;;;;2.34;100.00;96703.97;4982450;28;20042;-69
2022/12/21 00:46:05;;;;;;;30.67;18.65;;;;;;;2.39;100.00;96703.03;4978443;28;20522;-68
2022/12/21 00:48:31;;;;;;;31.27;19.08;;;;;;;2.44;100.00;96711.00;4984625;28;20046;-70
2022/12/21 00:51:09;;;;;;;29.85;17.15;;;;;;;2.52;100.00;96706.72;4980827;28;20052;-69
2022/12/21 00:53:34;;;;;;;27.77;16.50;;;;;;;2.52;100.00;96701.31;4983506;28;20100;-69
2022/12/21 00:56:01;;;;;;;29.67;18.50;;;;;;;2.57;100.00;96703.88;4983281;28;20129;-69
2022/12/21 00:58:28;;;;;;;31.67;18.45;;;;;;;2.61;100.00;96710.22;4981311;28;20042;-69
2022/12/21 01:00:55;;;;;;;29.65;18.42;;;;;;;2.62;100.00;96709.91;4982583;28;20046;-70
2022/12/21 01:03:21;;;;;;;26.00;16.60;;;;;;;2.69;100.00;96706.75;4979227;28;20046;-68
2022/12/21 01:05:48;;;;;;;29.77;17.70;;;;;;;2.68;100.00;96705.97;4982884;28;20046;-70
2022/12/21 01:08:15;;;;;;;31.27;17.02;;;;;;;2.60;100.00;96703.25;4978042;28;20053;-70
2022/12/21 01:10:40;;;;;;;29.70;17.58;;;;;;;2.55;100.00;96701.47;4982997;28;20507;-71
2022/12/21 01:13:06;;;;;;;23.75;15.38;;;;;;;2.59;100.00;96701.63;4979058;28;20074;-70
2022/12/21 01:15:31;;;;;;;26.58;17.67;;;;;;;2.59;100.00;96691.66;4981677;28;20490;-71
2022/12/21 01:17:57;;;;;;;28.15;17.00;;;;;;;2.64;100.00;96685.28;4984436;28;20129;-71
2022/12/21 01:20:22;;;;;;;26.08;16.20;;;;;;;2.68;100.00;96694.34;4984046;28;20393;-70
2022/12/21 01:22:47;;;;;;;23.27;16.60;;;;;;;2.80;100.00;96702.63;4997510;28;20046;-68
2022/12/21 01:25:13;;;;;;;25.25;16.38;;;;;;;2.66;100.00;96686.53;4968710;28;20370;-70
2022/12/21 01:27:38;;;;;;;24.75;15.13;;;;;;;2.59;100.00;96690.81;4981797;28;20050;-70
2022/12/21 01:30:05;;;;;;;28.35;15.75;;;;;;;2.64;100.00;96699.59;4962267;28;20043;-68
2022/12/21 01:32:30;;;;;;;25.52;15.00;;;;;;;2.62;100.00;96693.69;4975883;28;20047;-70
2022/12/21 01:34:56;;;;;;;24.02;14.63;;;;;;;2.61;100.00;96700.22;4991901;28;20053;-69
2022/12/21 01:37:22;;;;;;;25.58;15.82;;;;;;;2.62;100.00;96693.69;4985616;28;20058;-69
2022/12/21 01:39:48;;;;;;;22.75;15.20;;;;;;;2.39;100.00;96682.19;4988832;28;20150;-70
2022/12/21 01:42:13;;;;;;;23.67;14.93;;;;;;;2.42;100.00;96692.38;4979868;28;20050;-70
2022/12/21 01:44:57;;;;;;;24.30;15.68;;;;;;;2.53;100.00;96676.66;4983962;28;20062;-69
2022/12/21 01:47:29;;;;;;;23.83;14.63;;;;;;;2.56;100.00;96686.84;4978161;28;20038;-69
2022/12/21 01:50:01;;;;;;;29.20;16.15;;;;;;;2.54;100.00;96685.56;4985205;28;20062;-69
2022/12/21 01:52:28;;;;;;;22.55;15.48;;;;;;;2.55;100.00;96693.34;4996091;28;20114;-69
2022/12/21 01:54:58;;;;;;;27.63;16.15;;;;;;;2.55;100.00;96693.34;4983010;28;20046;-69
2022/12/21 01:57:25;;;;;;;26.92;15.18;;;;;;;2.49;100.00;96698.13;4975209;28;20972;-70
2022/12/21 01:59:56;;;;;;;25.30;16.48;;;;;;;2.32;100.00;96675.66;4981799;28;20073;-71
2022/12/21 02:02:30;;;;;;;27.38;17.08;;;;;;;2.13;100.00;96659.72;4977873;28;20042;-69
2022/12/21 02:05:05;;;;;;;28.92;17.73;;;;;;;2.21;100.00;96675.94;4980876;28;20084;-69
2022/12/21 02:07:31;;;;;;;84.93;24.98;;;;;;;2.33;100.00;96688.06;4980865;28;20126;-68
2022/12/21 02:09:56;;;;;;;41.95;20.00;;;;;;;2.37;100.00;96670.91;4981825;28;20129;-69
2022/12/21 02:12:22;;;;;;;25.40;14.40;;;;;;;2.51;100.00;96668.06;4982425;28;20054;-69
2022/12/21 02:14:48;;;;;;;27.52;14.68;;;;;;;2.60;100.00;96671.59;4986413;28;20042;-69
2022/12/21 02:17:42;;;;;;;23.45;13.27;;;;;;;2.70;100.00;96677.81;4961298;28;20039;-69
2022/12/21 02:20:32;;;;;;;30.25;16.63;;;;;;;2.75;100.00;96675.75;4957042;28;20031;-68
2022/12/21 02:23:27;;;;;;;28.63;16.75;;;;;;;2.70;100.00;96672.38;4963226;28;20154;-69
2022/12/21 02:26:15;;;;;;;30.38;17.13;;;;;;;2.67;100.00;96677.31;4950443;28;20039;-67
2022/12/21 02:29:14;;;;;;;26.67;16.65;;;;;;;2.65;100.00;96674.16;4960226;28;20047;-68
2022/12/21 02:32:10;;;;;;;23.40;16.08;;;;;;;2.92;100.00;96682.28;4976613;28;20047;-67
2022/12/21 02:34:46;;;;;;;23.27;15.85;;;;;;;2.70;100.00;96680.50;4975840;28;20369;-67
2022/12/21 02:37:35;;;;;;;28.10;16.55;;;;;;;2.68;100.00;96676.22;4983427;28;20051;-68
2022/12/21 02:40:26;;;;;;;28.93;16.67;;;;;;;2.56;100.00;96672.56;4994582;28;20046;-67
2022/12/21 02:46:08;;;;;;;28.95;18.08;;;;;;;2.07;100.00;96676.06;4980588;28;20376;-68
2022/12/21 02:48:49;;;;;;;31.00;17.30;;;;;;;2.05;100.00;96677.47;4981309;28;20044;-67
2022/12/21 02:51:20;;;;;;;27.40;18.85;;;;;;;1.79;100.00;96663.84;4976581;28;20038;-68
2022/12/21 02:53:47;;;;;;;33.47;19.45;;;;;;;1.68;100.00;96669.50;4981372;28;20038;-68
2022/12/21 02:56:16;;;;;;;28.42;18.50;;;;;;;1.69;100.00;96675.69;4976406;28;20042;-68
2022/12/21 02:58:42;;;;;;;26.25;17.80;;;;;;;1.75;100.00;96673.66;4981654;28;20049;-68
2022/12/21 03:01:29;;;;;;;27.17;17.52;;;;;;;1.83;100.00;96681.03;4978059;28;20035;-68
2022/12/21 03:04:00;;;;;;;28.88;17.55;;;;;;;1.96;100.00;96674.72;4981971;28;20049;-67
2022/12/21 03:07:04;;;;;;;26.63;16.73;;;;;;;1.98;100.00;96680.63;4975765;28;20212;-67
2022/12/21 03:09:42;;;;;;;25.60;16.30;;;;;;;2.03;100.00;96679.69;4990044;28;20116;-68
2022/12/21 03:12:22;;;;;;;23.10;16.10;;;;;;;2.12;100.00;96675.09;4978858;28;20046;-69
2022/12/21 03:15:12;;;;;;;24.10;15.82;;;;;;;2.18;100.00;96673.06;4981514;28;20132;-68
2022/12/21 03:18:04;;;;;;;22.88;15.63;;;;;;;2.19;100.00;96664.63;4979666;28;20047;-68
2022/12/21 03:20:50;;;;;;;23.00;15.07;;;;;;;2.30;100.00;96673.25;4980924;28;20181;-68
2022/12/21 03:23:21;;;;;;;26.42;14.80;;;;;;;2.38;100.00;96661.69;4971142;28;20046;-69
2022/12/21 03:26:14;;;;;;;23.17;14.88;;;;;;;2.40;100.00;96653.25;4963023;28;20129;-69
2022/12/21 03:28:42;;;;;;;29.13;15.73;;;;;;;2.30;100.00;96646.22;4958558;28;20527;-68
2022/12/21 03:31:16;;;;;;;27.25;16.30;;;;;;;2.29;100.00;96652.75;4961315;28;20042;-70
2022/12/21 03:33:48;;;;;;;26.90;15.50;;;;;;;2.36;100.00;96652.28;4964360;28;20070;-69
2022/12/21 03:36:20;;;;;;;24.15;15.30;;;;;;;2.31;100.00;96663.25;4960301;28;20054;-69
2022/12/21 03:39:00;;;;;;;25.38;15.07;;;;;;;2.36;100.00;96657.69;4964241;28;20038;-69
2022/12/21 03:41:36;;;;;;;24.80;16.27;;;;;;;2.37;100.00;96659.28;4959398;28;20054;-68
2022/12/21 03:44:05;;;;;;;23.10;15.60;;;;;;;2.39;100.00;96665.97;4964522;28;20046;-68
2022/12/21 03:46:38;;;;;;;21.30;14.68;;;;;;;2.54;100.00;96655.81;4964289;28;20062;-68
2022/12/21 03:49:39;;;;;;;19.17;14.13;;;;;;;2.62;100.00;96655.06;4962188;28;20034;-67
2022/12/21 03:52:14;;;;;;;25.20;14.85;;;;;;;2.59;100.00;96652.97;4962267;28;20039;-67
2022/12/21 03:55:06;;;;;;;;;;;;;;;2.59;100.00;96651.09;4966869;28;20101;-68
2022/12/21 03:57:36;;;;;;;18.98;13.70;;;;;;;2.57;100.00;96652.50;4925596;28;19924;-69
2022/12/21 04:00:04;;;;;;;19.73;13.93;;;;;;;2.53;100.00;96663.16;4935793;28;20477;-66
2022/12/21 04:02:41;;;;;;;22.02;13.88;;;;;;;2.57;100.00;96666.81;4966390;28;20082;-68
2022/12/21 04:05:12;;;;;;;21.60;14.30;;;;;;;2.64;100.00;96656.31;4961398;28;20113;-68
2022/12/21 04:07:40;;;;;;;31.08;16.83;;;;;;;2.59;100.00;96670.00;4964357;28;20081;-68
2022/12/21 04:10:09;;;;;;;25.00;14.70;;;;;;;2.53;100.00;96646.13;4959905;28;20066;-67
2022/12/21 04:12:40;;;;;;;21.20;14.05;;;;;;;2.48;100.00;96661.41;4947704;28;20043;-68
2022/12/21 04:15:06;;;;;;;23.70;15.05;;;;;;;2.62;100.00;96650.44;4959774;28;20047;-67
2022/12/21 04:17:32;;;;;;;25.85;15.93;;;;;;;2.32;100.00;96654.81;4964194;28;20047;-67
2022/12/21 04:19:57;;;;;;;22.80;15.05;;;;;;;2.25;100.00;96659.88;4965472;28;20050;-67
2022/12/21 04:28:09;;;;;;;26.17;14.60;;;;;;;2.16;100.00;96665.28;4963912;28;20121;-69
2022/12/21 04:30:34;;;;;;;22.88;15.27;;;;;;;2.30;100.00;96662.44;4985680;28;20038;-66
2022/12/21 04:32:59;;;;;;;23.60;15.40;;;;;;;2.41;100.00;96663.78;4979564;28;20067;-68
2022/12/21 04:35:25;;;;;;;23.02;14.45;;;;;;;2.39;100.00;96652.44;4979764;28;20435;-68
2022/12/21 04:37:50;;;;;;;22.25;14.13;;;;;;;2.40;100.00;96651.34;4983612;28;20050;-68
2022/12/21 04:40:16;;;;;;;20.23;13.82;;;;;;;2.39;100.00;96665.97;4978176;28;20078;-67
2022/12/21 04:42:41;;;;;;;25.88;15.55;;;;;;;2.32;100.00;96662.91;4983367;28;20038;-66
2022/12/21 04:45:07;;;;;;;25.27;14.30;;;;;;;2.40;100.00;96672.97;4978624;28;20158;-67
2022/12/21 04:47:32;;;;;;;25.92;15.63;;;;;;;2.34;100.00;96662.63;4983339;28;20124;-66
2022/12/21 04:49:58;;;;;;;19.40;13.85;;;;;;;2.24;100.00;96669.91;4983810;28;20092;-67
2022/12/21 04:52:23;;;;;;;22.65;13.73;;;;;;;2.30;100.00;96665.16;4978326;28;20043;-67
2022/12/21 04:54:49;;;;;;;20.10;13.88;;;;;;;2.40;100.00;96661.38;4982880;28;20050;-67
2022/12/21 04:57:14;;;;;;;23.10;14.38;;;;;;;2.50;100.00;96655.66;4982012;28;20116;-68
2022/12/21 04:59:40;;;;;;;22.65;13.70;;;;;;;2.52;100.00;96658.03;4989934;28;20427;-66
2022/12/21 05:02:05;;;;;;;23.58;14.40;;;;;;;2.44;100.00;96657.72;4979021;28;20049;-66
2022/12/21 05:04:30;;;;;;;22.83;13.55;;;;;;;2.38;100.00;96666.31;4983780;28;20039;-68
2022/12/21 05:06:56;;;;;;;27.00;14.82;;;;;;;2.38;100.00;96675.19;4983400;28;20438;-69
2022/12/21 05:09:22;;;;;;;20.70;13.63;;;;;;;2.40;100.00;96674.88;4979197;28;20905;-69
2022/12/21 05:11:48;;;;;;;27.98;13.95;;;;;;;2.48;100.00;96682.22;4983662;28;20232;-69
2022/12/21 05:14:13;;;;;;;20.67;12.88;;;;;;;2.52;100.00;96675.09;4977056;28;20157;-68
2022/12/21 05:16:39;;;;;;;21.58;13.20;;;;;;;2.59;100.00;96675.41;4983680;28;20082;-69
2022/12/21 05:19:04;;;;;;;31.63;15.93;;;;;;;2.55;100.00;96679.84;4979069;28;20054;-68
2022/12/21 05:21:30;;;;;;;43.50;20.08;;;;;;;2.60;100.00;96673.50;4983805;28;20105;-69
2022/12/21 05:23:55;;;;;;;31.58;17.65;;;;;;;2.66;100.00;96680.34;4974664;28;20074;-68
2022/12/21 05:26:20;;;;;;;26.63;15.45;;;;;;;2.75;100.00;96688.47;4956968;28;20070;-68
2022/12/21 05:28:46;;;;;;;30.05;15.70;;;;;;;2.75;100.00;96683.84;4968679;28;20504;-68
2022/12/21 05:31:13;;;;;;;30.17;15.07;;;;;;;2.69;100.00;96690.53;4976730;28;20054;-67
2022/12/21 05:33:39;;;;;;;27.23;14.40;;;;;;;2.64;100.00;96677.94;4970906;28;20065;-67
2022/12/21 05:36:06;;;;;;;21.17;14.15;;;;;;;2.58;100.00;96683.84;4955163;28;20035;-67
2022/12/21 05:38:32;;;;;;;25.70;14.02;;;;;;;2.28;100.00;96689.78;4968787;28;20050;-67
2022/12/21 05:40:57;;;;;;;19.52;13.10;;;;;;;2.25;100.00;96690.44;4982887;28;20042;-67
2022/12/21 05:43:23;;;;;;;20.80;14.55;;;;;;;2.27;100.00;96673.91;4978038;28;20446;-68
2022/12/21 05:45:48;;;;;;;21.25;13.23;;;;;;;2.59;100.00;96669.19;4979767;28;20073;-67
2022/12/21 05:48:14;;;;;;;24.50;16.27;;;;;;;2.29;100.00;96661.66;4979235;28;20057;-67
2022/12/21 05:50:40;;;;;;;29.80;14.93;;;;;;;2.55;100.00;96679.06;4982051;28;20446;-67
2022/12/21 05:53:07;;;;;;;23.98;14.65;;;;;;;2.57;100.00;96687.66;4982152;28;20034;-67
2022/12/21 05:55:33;;;;;;;23.60;13.75;;;;;;;2.58;100.00;96689.25;4999786;28;20050;-67
2022/12/21 05:57:58;;;;;;;22.80;14.25;;;;;;;2.55;100.00;96674.44;4991959;28;20050;-67
2022/12/21 06:00:24;;;;;;;26.15;14.02;;;;;;;2.59;100.00;96694.34;4984789;28;20045;-69
2022/12/21 06:02:49;;;;;;;22.77;13.05;;;;;;;2.51;100.00;96688.91;4983952;28;20395;-68
2022/12/21 06:05:15;;;;;;;21.75;14.43;;;;;;;2.58;100.00;96690.03;4976600;28;20050;-67
2022/12/21 06:07:40;;;;;;;30.05;15.60;;;;;;;2.78;100.00;96685.16;4980927;28;20042;-68
2022/12/21 06:10:07;;;;;;;27.13;16.55;;;;;;;2.83;100.00;96691.19;4975977;28;20039;-68
2022/12/21 06:12:33;;;;;;;20.23;12.38;;;;;;;2.87;100.00;96689.44;4980715;28;20104;-68
2022/12/21 06:14:58;;;;;;;24.00;12.68;;;;;;;3.05;100.00;96684.06;4983924;28;20135;-67
2022/12/21 06:17:27;;;;;;;19.30;13.00;;;;;;;3.08;100.00;96680.72;4982465;28;20050;-66
2022/12/21 06:19:52;;;;;;;23.77;12.77;;;;;;;3.13;100.00;96680.53;4987475;28;20038;-66
2022/12/21 06:22:18;;;;;;;19.10;11.63;;;;;;;3.11;100.00;96679.28;4979761;28;20057;-67
2022/12/21 06:24:43;;;;;;;19.75;12.90;;;;;;;3.05;100.00;96692.16;4982583;28;20109;-67
2022/12/21 06:27:08;;;;;;;19.40;12.27;;;;;;;2.99;100.00;96688.00;4968812;28;20134;-67
2022/12/21 06:29:34;;;;;;;23.27;12.55;;;;;;;2.72;100.00;96686.38;4963112;28;20503;-68
2022/12/21 06:31:59;;;;;;;21.85;14.55;;;;;;;2.42;100.00;96699.69;4976145;28;20050;-67
2022/12/21 06:34:25;;;;;;;24.42;15.48;;;;;;;2.26;100.00;96699.31;4967417;28;20049;-67
2022/12/21 06:36:50;;;;;;;29.08;16.70;;;;;;;2.21;100.00;96702.94;4964575;28;20137;-70
2022/12/21 06:39:15;;;;;;;26.98;16.27;;;;;;;2.28;100.00;96700.59;4969490;28;20038;-68
2022/12/21 06:41:41;;;;;;;23.13;15.85;;;;;;;2.44;100.00;96695.56;4983550;28;20039;-68
2022/12/21 06:44:07;;;;;;;23.75;15.57;;;;;;;2.65;100.00;96692.28;4978154;28;20115;-68
2022/12/21 06:46:33;;;;;;;31.85;15.88;;;;;;;2.68;100.00;96695.16;4986631;28;20046;-68
2022/12/21 06:48:59;;;;;;;23.25;15.65;;;;;;;2.64;100.00;96691.47;4983021;28;20141;-68
2022/12/21 06:51:25;;;;;;;25.83;16.40;;;;;;;2.64;100.00;96696.09;4978653;28;20447;-66
2022/12/21 06:53:52;;;;;;;20.67;14.95;;;;;;;2.78;100.00;96695.97;4982697;28;20391;-67
2022/12/21 06:56:23;;;;;;;24.20;14.77;;;;;;;2.86;100.00;96693.28;4977304;28;20133;-67
2022/12/21 06:58:52;;;;;;;25.38;15.73;;;;;;;2.77;100.00;96673.50;4984025;28;20038;-66
2022/12/21 07:01:33;;;;;;;21.90;15.25;;;;;;;2.89;100.00;96683.72;4982133;28;20038;-68
2022/12/21 07:03:59;;;;;;;27.42;15.32;;;;;;;2.80;100.00;96688.31;4987144;28;20512;-69
2022/12/21 07:06:27;;;;;;;28.42;17.35;;;;;;;2.83;100.00;96691.19;4983797;28;20179;-68
2022/12/21 07:08:53;;;;;;;28.13;18.58;;;;;;;2.85;100.00;96699.78;4986080;28;20038;-68
2022/12/21 07:11:21;;;;;;;34.97;23.38;;;;;;;3.00;100.00;96701.22;4983313;28;20042;-68
2022/12/21 07:13:48;;;;;;;29.35;19.08;;;;;;;3.08;100.00;96698.84;4986241;28;20133;-67
2022/12/21 07:16:14;;;;;;;31.00;16.98;;;;;;;3.12;100.00;96694.41;4984649;28;20092;-67
2022/12/21 07:18:40;;;;;;;29.25;17.30;;;;;;;3.17;100.00;96684.22;4986750;28;20406;-69
2022/12/21 07:21:08;;;;;;;37.05;20.00;;;;;;;3.54;100.00;96694.69;4982479;28;20046;-67
2022/12/21 07:23:36;;;;;;;27.67;18.42;;;;;;;3.53;100.00;96709.34;4986803;28;20065;-68
2022/12/21 07:26:08;;;;;;;59.33;21.27;;;;;;;3.48;100.00;96690.56;4984942;28;20054;-67
2022/12/21 07:28:34;;;;;;;28.90;18.23;;;;;;;3.46;100.00;96685.47;4965126;28;20035;-67
2022/12/21 07:31:04;;;;;;;32.45;19.02;;;;;;;3.44;100.00;96682.28;4964951;28;20381;-68
2022/12/21 07:33:30;;;;;;;33.70;19.75;;;;;;;3.40;100.00;96668.59;4966768;28;20042;-67
2022/12/21 07:36:04;;;;;;;36.03;19.38;;;;;;;3.32;100.00;96674.81;4976808;28;20840;-68
2022/12/21 07:38:32;;;;;;;34.95;19.85;;;;;;;3.31;100.00;96683.25;5001120;28;20446;-67
2022/12/21 07:40:59;;;;;;;39.78;25.50;;;;;;;3.51;100.00;96684.50;4982181;28;20042;-68
2022/12/21 07:43:24;;;;;;;47.25;26.67;;;;;;;3.63;100.00;96698.97;4979933;28;20049;-68
2022/12/21 07:45:50;;;;;;;37.42;21.38;;;;;;;3.71;100.00;96696.56;4983850;28;20478;-67
2022/12/21 07:48:16;;;;;;;34.03;21.00;;;;;;;3.91;100.00;96689.69;4979603;28;20034;-67
2022/12/21 07:50:42;;;;;;;33.58;17.85;;;;;;;3.98;100.00;96704.31;4985268;28;20046;-68
2022/12/21 07:53:07;;;;;;;38.85;18.40;;;;;;;3.97;100.00;96699.22;4981430;28;20445;-66
2022/12/21 07:55:33;;;;;;;37.10;18.08;;;;;;;4.07;100.00;96708.91;4983124;28;20042;-66
2022/12/21 07:57:58;;;;;;;29.33;15.77;;;;;;;4.11;100.00;96702.53;4984955;28;20562;-67
2022/12/21 08:00:24;;;;;;;39.97;19.75;;;;;;;3.99;100.00;96694.28;4981287;28;20054;-66
2022/12/21 08:02:50;;;;;;;28.38;16.95;;;;;;;3.91;100.00;96690.47;4984446;28;20042;-66
2022/12/21 08:05:19;;;;;;;31.35;17.85;;;;;;;3.88;100.00;96693.81;4981475;28;20104;-68
2022/12/21 08:07:46;;;;;;;34.80;20.60;;;;;;;3.93;100.00;96693.66;4984769;28;20054;-66
2022/12/21 08:10:12;;;;;;;58.67;33.72;;;;;;;4.02;100.00;96691.72;4978363;28;20045;-68
2022/12/21 08:12:38;;;;;;;93.85;49.20;;;;;;;4.11;100.00;96691.69;4985808;28;20049;-68
2022/12/21 08:15:04;;;;;;;40.90;23.92;;;;;;;4.20;100.00;96689.72;4983095;28;20042;-67
2022/12/21 08:17:30;;;;;;;36.58;20.90;;;;;;;4.02;100.00;96680.88;4982646;28;20054;-66
2022/12/21 08:19:56;;;;;;;33.88;19.88;;;;;;;3.83;100.00;96688.56;4985435;28;20137;-66
2022/12/21 08:22:22;;;;;;;55.90;35.47;;;;;;;3.67;100.00;96688.28;4980187;28;20641;-66
2022/12/21 08:24:48;;;;;;;29.25;19.40;;;;;;;3.66;100.00;96694.06;4984206;28;20038;-66
2022/12/21 08:27:13;;;;;;;40.00;22.27;;;;;;;3.87;100.00;96703.09;4969717;28;20085;-65
2022/12/21 08:29:39;;;;;;;30.65;19.35;;;;;;;3.91;100.00;96704.03;4963969;28;20046;-66
2022/12/21 08:32:04;;;;;;;33.65;18.17;;;;;;;3.97;100.00;96696.50;4958502;28;20070;-66
2022/12/21 08:34:30;;;;;;;38.63;24.40;;;;;;;3.83;100.00;96680.44;4966043;28;20039;-67
2022/12/21 08:36:56;;;;;;;35.40;20.75;;;;;;;3.75;100.00;96682.06;4965805;28;20042;-68
2022/12/21 08:39:21;;;;;;;35.80;25.42;;;;;;;3.80;100.00;96689.25;4963231;28;20359;-68
2022/12/21 08:41:47;;;;;;;35.55;21.70;;;;;;;3.93;100.00;96685.53;4971261;28;20035;-67
2022/12/21 08:44:12;;;;;;;32.20;19.67;;;;;;;4.09;100.00;96695.81;4971439;28;20042;-68
2022/12/21 08:46:38;;;;;;;31.00;17.88;;;;;;;4.13;100.00;96686.72;4993918;28;20094;-69
2022/12/21 08:49:04;;;;;;;24.70;18.05;;;;;;;4.24;100.00;96699.94;4993913;28;20046;-67
2022/12/21 08:51:29;;;;;;;26.67;17.80;;;;;;;4.31;100.00;96695.59;4987170;28;20129;-68
2022/12/21 08:53:56;;;;;;;31.02;17.92;;;;;;;4.38;100.00;96693.16;4983760;28;20145;-69
2022/12/21 08:56:22;;;;;;;28.50;19.98;;;;;;;4.47;100.00;96700.47;4977898;28;20046;-68
2022/12/21 08:58:47;;;;;;;28.95;18.00;;;;;;;4.51;100.00;96685.91;4983144;28;20050;-68
2022/12/21 09:01:18;;;;;;;33.20;16.15;;;;;;;4.64;100.00;96686.81;4978916;28;20089;-67
2022/12/21 09:03:43;;;;;;;29.10;16.33;;;;;;;4.72;100.00;96687.91;4984945;28;20132;-68
2022/12/21 09:06:09;;;;;;;26.88;16.70;;;;;;;4.60;100.00;96694.81;4979970;28;20154;-70
2022/12/21 09:08:34;;;;;;;30.70;16.17;;;;;;;4.63;100.00;96704.22;4982883;28;20049;-68
2022/12/21 09:11:05;;;;;;;29.20;16.10;;;;;;;4.71;100.00;96697.16;4999867;28;20053;-68
2022/12/21 09:13:31;;;;;;;32.60;18.58;;;;;;;4.71;100.00;96689.78;4994326;28;20038;-67
2022/12/21 09:15:56;;;;;;;28.73;16.30;;;;;;;4.65;100.00;96709.31;4977129;28;20050;-68
2022/12/21 09:18:22;;;;;;;31.95;17.35;;;;;;;4.60;100.00;96685.88;4958572;28;20850;-68
2022/12/21 09:20:48;;;;;;;34.33;22.58;;;;;;;4.35;100.00;96693.03;4964335;28;20039;-67
2022/12/21 09:23:13;;;;;;;30.25;23.20;;;;;;;4.42;100.00;96695.22;4963224;28;20046;-67
2022/12/21 09:25:39;;;;;;;29.38;19.25;;;;;;;4.52;100.00;96687.53;4981826;28;20507;-67
2022/12/21 09:28:05;;;;;;;32.65;19.08;;;;;;;4.66;100.00;96697.31;4968231;28;20585;-66
2022/12/21 09:30:30;;;;;;;24.17;16.98;;;;;;;4.73;100.00;96690.25;4964207;28;20459;-67
2022/12/21 09:32:56;;;;;;;24.48;15.07;;;;;;;4.83;100.00;96696.44;4972915;28;20165;-66
2022/12/21 09:35:21;;;;;;;25.85;15.75;;;;;;;4.81;100.00;96693.25;4976519;28;20853;-66
2022/12/21 09:37:47;;;;;;;26.85;16.73;;;;;;;4.79;100.00;96688.94;4963720;28;20042;-67
2022/12/21 09:40:15;;;;;;;37.83;18.20;;;;;;;4.79;100.00;96680.03;4957441;28;20069;-67
2022/12/21 09:43:09;;;;;;;45.60;21.30;;;;;;;4.92;100.00;96678.19;4964153;28;20424;-68
2022/12/21 09:45:54;;;;;;;25.38;16.52;;;;;;;5.08;100.00;96683.81;4956695;28;20034;-68
2022/12/21 09:48:29;;;;;;;26.92;18.05;;;;;;;4.82;100.00;96670.41;4966521;28;20047;-67
2022/12/21 09:50:59;;;;;;;29.15;19.10;;;;;;;4.97;100.00;96678.78;4972990;28;20333;-67
2022/12/21 09:53:46;;;;;;;32.85;18.13;;;;;;;5.10;100.00;96674.22;4971923;28;20046;-69
2022/12/21 09:56:17;;;;;;;35.38;18.15;;;;;;;5.21;100.00;96681.97;4965668;28;20035;-66
2022/12/21 09:58:45;;;;;;;34.28;18.42;;;;;;;5.28;100.00;96674.06;4972266;28;20448;-66
2022/12/21 10:01:29;;;;;;;29.33;17.63;;;;;;;5.41;100.00;96669.47;4969964;28;20481;-66
2022/12/21 10:04:10;;;;;;;36.35;18.27;;;;;;;5.53;100.00;96666.81;4995254;28;20034;-69
2022/12/21 10:06:49;;;;;;;34.00;16.52;;;;;;;5.71;100.00;96670.94;4984690;28;20041;-66
2022/12/21 10:09:39;;;;;;;30.97;16.67;;;;;;;5.73;100.00;96673.34;4969884;28;20133;-66
2022/12/21 10:12:20;;;;;;;22.58;14.77;;;;;;;5.85;100.00;96667.94;4968414;28;20038;-65
2022/12/21 10:15:13;;;;;;;30.25;15.50;;;;;;;5.90;100.00;96675.84;4971609;28;20130;-66
2022/12/21 10:18:02;;;;;;;20.92;14.10;;;;;;;6.12;100.00;96671.16;4972726;28;20055;-66
2022/12/21 10:20:47;;;;;;;34.83;14.85;;;;;;;6.25;100.00;96672.00;4965426;28;20042;-65
2022/12/21 10:23:25;;;;;;;34.10;14.88;;;;;;;6.35;100.00;96668.03;4966080;28;20045;-66
2022/12/21 10:25:58;;;;;;;33.88;14.02;;;;;;;6.39;100.00;96677.06;4967205;28;20079;-66
2022/12/21 10:28:43;;;;;;;34.75;16.40;;;;;;;6.45;100.00;96686.63;4968912;28;20435;-66
2022/12/21 10:31:14;;;;;;;31.23;15.05;;;;;;;6.27;100.00;96688.75;4967623;28;20045;-66
2022/12/21 10:33:42;;;;;;;29.92;16.08;;;;;;;6.29;100.00;96686.50;4977841;28;20050;-67
2022/12/21 10:36:19;;;;;;;22.88;15.30;;;;;;;6.29;100.00;96686.50;4975372;28;20123;-66
2022/12/21 10:38:46;;;;;;;30.35;14.98;;;;;;;6.35;100.00;96685.13;4974259;28;20038;-67
2022/12/21 10:41:24;;;;;;;48.58;15.27;;;;;;;6.45;100.00;96689.34;4965130;28;20141;-65
2022/12/21 10:43:52;;;;;;;22.05;13.38;;;;;;;6.44;100.00;96676.84;4990478;28;20151;-67
2022/12/21 10:46:19;;;;;;;32.88;14.13;;;;;;;6.53;100.00;96676.75;4964695;28;20042;-67
2022/12/21 10:48:47;;;;;;;24.83;14.02;;;;;;;6.45;100.00;96673.81;4971937;28;20151;-67
2022/12/21 10:51:26;;;;;;;19.52;12.82;;;;;;;6.51;100.00;96668.91;4967722;28;20119;-67
2022/12/21 10:54:01;;;;;;;18.67;12.77;;;;;;;6.42;100.00;96666.31;4972363;28;20536;-67
2022/12/21 10:56:27;;;;;;;21.75;12.80;;;;;;;6.56;100.00;96663.25;4964143;28;20051;-67
2022/12/21 10:58:54;;;;;;;20.85;13.27;;;;;;;6.73;100.00;96667.66;4970258;28;20458;-67
2022/12/21 11:01:27;;;;;;;23.40;13.65;;;;;;;6.76;100.00;96669.69;4989358;28;20049;-67
2022/12/21 11:04:12;;;;;;;43.22;19.42;;;;;;;6.26;100.00;96657.25;4971918;28;20042;-67
2022/12/21 11:06:38;;;;;;;21.73;15.20;;;;;;;6.30;100.00;96660.88;4971277;28;20528;-67
2022/12/21 11:09:32;;;;;;;22.70;16.10;;;;;;;6.30;100.00;96655.41;4973902;28;20039;-66
2022/12/21 11:12:21;;;;;;;25.90;16.98;;;;;;;6.35;100.00;96665.28;4974470;28;20038;-66
2022/12/21 11:14:48;;;;;;;69.70;27.38;;;;;;;6.55;100.00;96663.59;4977386;28;20049;-67
2022/12/21 11:17:17;;;;;;;25.08;17.33;;;;;;;6.20;100.00;96653.16;4967817;28;20042;-66
2022/12/21 11:19:43;;;;;;;58.67;25.83;;;;;;;6.30;100.00;96656.25;4983885;28;20126;-66
2022/12/21 11:22:09;;;;;;;29.75;24.35;;;;;;;6.24;100.00;96652.13;4970394;28;21006;-66
2022/12/21 11:24:39;;;;;;;26.20;19.92;;;;;;;6.24;100.00;96651.34;4976539;28;20101;-67
2022/12/21 11:27:25;;;;;;;24.33;15.65;;;;;;;6.40;100.00;96644.09;4966709;28;20043;-65
2022/12/21 11:30:08;;;;;;;23.08;13.63;;;;;;;6.70;100.00;96654.75;4974069;28;20357;-67
2022/12/21 11:32:42;;;;;;;27.13;14.98;;;;;;;6.84;100.00;96646.19;4969514;28;20057;-66
2022/12/21 11:35:18;;;;;;;26.73;16.42;;;;;;;7.01;100.00;96650.59;4965012;28;20042;-67
2022/12/21 11:37:46;;;;;;;20.58;13.77;;;;;;;7.16;100.00;96640.91;4970750;28;20101;-66
2022/12/21 11:40:11;;;;;;;21.00;13.75;;;;;;;7.19;100.00;96642.94;4968458;28;20480;-67